sensor_id;sensor_type;location;lat;lon;timestamp;P1;durP1;ratioP1;P2;durP2;ratioP2
10416;SDS011;62605;49.432;8.680;2023-07-02T00:00:12;2.22;;;1.88;;
10416;SDS011;62605;49.432;8.680;2023-07-02T00:02:45;2.17;;;1.88;;
10416;SDS011;62605;49.432;8.680;2023-07-02T00:05:14;3.28;;;2.10;;
10416;SDS011;62605;49.432;8.680;2023-07-02T00:07:43;2.38;;;2.00;;
10416;SDS011;62605;49.432;8.680;2023-07-02T00:10:12;5.07;;;2.60;;
10416;SDS011;62605;49.432;8.680;2023-07-02T00:12:39;2.50;;;2.13;;
10416;SDS011;62605;49.432;8.680;2023-07-02T00:15:06;3.17;;;2.08;;
10416;SDS011;62605;49.432;8.680;2023-07-02T00:17:33;3.28;;;2.08;;
10416;SDS011;62605;49.432;8.680;2023-07-02T00:20:07;2.03;;;1.73;;
10416;SDS011;62605;49.432;8.680;2023-07-02T00:22:39;4.88;;;1.73;;
10416;SDS011;62605;49.432;8.680;2023-07-02T00:25:09;5.80;;;2.35;;
10416;SDS011;62605;49.432;8.680;2023-07-02T00:30:34;2.22;;;1.90;;
10416;SDS011;62605;49.432;8.680;2023-07-02T00:33:05;3.25;;;1.90;;
10416;SDS011;62605;49.432;8.680;2023-07-02T00:35:49;3.42;;;2.03;;
10416;SDS011;62605;49.432;8.680;2023-07-02T00:38:28;2.10;;;1.90;;
10416;SDS011;62605;49.432;8.680;2023-07-02T00:41:02;1.85;;;1.73;;
10416;SDS011;62605;49.432;8.680;2023-07-02T00:43:40;3.25;;;2.10;;
10416;SDS011;62605;49.432;8.680;2023-07-02T00:49:10;2.38;;;1.60;;
10416;SDS011;62605;49.432;8.680;2023-07-02T00:51:54;2.00;;;1.80;;
10416;SDS011;62605;49.432;8.680;2023-07-02T00:54:22;2.22;;;1.70;;
10416;SDS011;62605;49.432;8.680;2023-07-02T00:56:50;2.30;;;1.80;;
10416;SDS011;62605;49.432;8.680;2023-07-02T00:59:20;3.47;;;2.03;;
10416;SDS011;62605;49.432;8.680;2023-07-02T01:01:54;3.45;;;2.00;;
10416;SDS011;62605;49.432;8.680;2023-07-02T01:04:25;1.80;;;1.70;;
10416;SDS011;62605;49.432;8.680;2023-07-02T01:09:59;2.03;;;1.60;;
10416;SDS011;62605;49.432;8.680;2023-07-02T01:12:29;3.75;;;1.88;;
10416;SDS011;62605;49.432;8.680;2023-07-02T01:15:02;2.05;;;1.70;;
10416;SDS011;62605;49.432;8.680;2023-07-02T01:20:39;4.68;;;1.55;;
10416;SDS011;62605;49.432;8.680;2023-07-02T01:23:27;2.33;;;2.13;;
10416;SDS011;62605;49.432;8.680;2023-07-02T01:25:55;2.95;;;1.73;;
10416;SDS011;62605;49.432;8.680;2023-07-02T01:28:25;2.15;;;1.70;;
10416;SDS011;62605;49.432;8.680;2023-07-02T01:31:14;2.78;;;1.83;;
10416;SDS011;62605;49.432;8.680;2023-07-02T01:33:50;3.58;;;1.80;;
10416;SDS011;62605;49.432;8.680;2023-07-02T01:36:25;2.22;;;2.03;;
10416;SDS011;62605;49.432;8.680;2023-07-02T01:38:52;1.50;;;1.40;;
10416;SDS011;62605;49.432;8.680;2023-07-02T01:41:20;1.77;;;1.67;;
10416;SDS011;62605;49.432;8.680;2023-07-02T01:43:48;3.90;;;1.80;;
10416;SDS011;62605;49.432;8.680;2023-07-02T01:46:16;2.63;;;1.58;;
10416;SDS011;62605;49.432;8.680;2023-07-02T01:48:43;2.75;;;1.60;;
10416;SDS011;62605;49.432;8.680;2023-07-02T01:51:13;2.35;;;1.70;;
10416;SDS011;62605;49.432;8.680;2023-07-02T01:53:43;3.03;;;1.85;;
10416;SDS011;62605;49.432;8.680;2023-07-02T01:56:11;2.35;;;1.52;;
10416;SDS011;62605;49.432;8.680;2023-07-02T01:58:41;1.80;;;1.42;;
10416;SDS011;62605;49.432;8.680;2023-07-02T02:01:10;2.95;;;1.73;;
10416;SDS011;62605;49.432;8.680;2023-07-02T02:03:44;1.92;;;1.50;;
10416;SDS011;62605;49.432;8.680;2023-07-02T02:06:12;1.58;;;1.27;;
10416;SDS011;62605;49.432;8.680;2023-07-02T02:08:56;2.97;;;1.60;;
10416;SDS011;62605;49.432;8.680;2023-07-02T02:11:24;3.30;;;1.88;;
10416;SDS011;62605;49.432;8.680;2023-07-02T02:13:54;3.72;;;1.45;;
10416;SDS011;62605;49.432;8.680;2023-07-02T02:16:22;2.65;;;1.35;;
10416;SDS011;62605;49.432;8.680;2023-07-02T02:18:55;1.40;;;1.30;;
10416;SDS011;62605;49.432;8.680;2023-07-02T02:21:50;6.70;;;1.45;;
10416;SDS011;62605;49.432;8.680;2023-07-02T02:24:48;1.55;;;1.33;;
10416;SDS011;62605;49.432;8.680;2023-07-02T02:27:49;1.40;;;1.30;;
10416;SDS011;62605;49.432;8.680;2023-07-02T02:33:42;2.58;;;1.60;;
10416;SDS011;62605;49.432;8.680;2023-07-02T02:36:22;1.83;;;1.40;;
10416;SDS011;62605;49.432;8.680;2023-07-02T02:38:59;3.78;;;1.45;;
10416;SDS011;62605;49.432;8.680;2023-07-02T02:41:33;3.90;;;1.80;;
10416;SDS011;62605;49.432;8.680;2023-07-02T02:44:10;3.00;;;1.88;;
10416;SDS011;62605;49.432;8.680;2023-07-02T02:46:41;2.40;;;1.50;;
10416;SDS011;62605;49.432;8.680;2023-07-02T02:49:11;3.70;;;1.63;;
10416;SDS011;62605;49.432;8.680;2023-07-02T02:51:39;3.53;;;1.77;;
10416;SDS011;62605;49.432;8.680;2023-07-02T02:54:12;4.05;;;2.17;;
10416;SDS011;62605;49.432;8.680;2023-07-02T02:56:41;3.38;;;2.08;;
10416;SDS011;62605;49.432;8.680;2023-07-02T02:59:12;6.22;;;2.38;;
10416;SDS011;62605;49.432;8.680;2023-07-02T03:01:40;2.70;;;2.10;;
10416;SDS011;62605;49.432;8.680;2023-07-02T03:04:08;3.25;;;2.28;;
10416;SDS011;62605;49.432;8.680;2023-07-02T03:06:39;6.22;;;2.83;;
10416;SDS011;62605;49.432;8.680;2023-07-02T03:09:07;4.20;;;2.35;;
10416;SDS011;62605;49.432;8.680;2023-07-02T03:11:34;8.63;;;2.65;;
10416;SDS011;62605;49.432;8.680;2023-07-02T03:14:07;3.80;;;2.35;;
10416;SDS011;62605;49.432;8.680;2023-07-02T03:16:37;4.32;;;2.72;;
10416;SDS011;62605;49.432;8.680;2023-07-02T03:19:06;6.22;;;2.80;;
10416;SDS011;62605;49.432;8.680;2023-07-02T03:21:52;4.93;;;3.00;;
10416;SDS011;62605;49.432;8.680;2023-07-02T03:24:32;6.72;;;2.95;;
10416;SDS011;62605;49.432;8.680;2023-07-02T03:27:01;5.10;;;3.13;;
10416;SDS011;62605;49.432;8.680;2023-07-02T03:29:38;4.90;;;2.70;;
10416;SDS011;62605;49.432;8.680;2023-07-02T03:32:33;6.07;;;2.85;;
10416;SDS011;62605;49.432;8.680;2023-07-02T03:35:23;7.45;;;2.72;;
10416;SDS011;62605;49.432;8.680;2023-07-02T03:37:59;7.35;;;3.38;;
10416;SDS011;62605;49.432;8.680;2023-07-02T03:40:30;6.75;;;2.72;;
10416;SDS011;62605;49.432;8.680;2023-07-02T03:43:06;5.05;;;2.78;;
10416;SDS011;62605;49.432;8.680;2023-07-02T03:45:47;4.85;;;2.72;;
10416;SDS011;62605;49.432;8.680;2023-07-02T03:48:23;5.28;;;3.17;;
10416;SDS011;62605;49.432;8.680;2023-07-02T03:51:29;5.60;;;2.72;;
10416;SDS011;62605;49.432;8.680;2023-07-02T03:53:48;5.20;;;3.00;;
10416;SDS011;62605;49.432;8.680;2023-07-02T03:56:23;8.88;;;2.90;;
10416;SDS011;62605;49.432;8.680;2023-07-02T03:58:51;5.97;;;3.20;;
10416;SDS011;62605;49.432;8.680;2023-07-02T04:04:28;5.72;;;3.00;;
10416;SDS011;62605;49.432;8.680;2023-07-02T04:07:04;6.50;;;3.65;;
10416;SDS011;62605;49.432;8.680;2023-07-02T04:09:33;3.60;;;2.80;;
10416;SDS011;62605;49.432;8.680;2023-07-02T04:12:08;4.95;;;3.08;;
10416;SDS011;62605;49.432;8.680;2023-07-02T04:14:37;3.70;;;2.85;;
10416;SDS011;62605;49.432;8.680;2023-07-02T04:17:11;4.70;;;2.90;;
10416;SDS011;62605;49.432;8.680;2023-07-02T04:19:39;5.50;;;3.00;;
10416;SDS011;62605;49.432;8.680;2023-07-02T04:22:09;5.03;;;2.88;;
10416;SDS011;62605;49.432;8.680;2023-07-02T04:25:07;6.80;;;3.00;;
10416;SDS011;62605;49.432;8.680;2023-07-02T04:27:43;8.82;;;2.92;;
10416;SDS011;62605;49.432;8.680;2023-07-02T04:30:12;7.68;;;3.00;;
10416;SDS011;62605;49.432;8.680;2023-07-02T04:32:58;6.15;;;3.00;;
10416;SDS011;62605;49.432;8.680;2023-07-02T04:35:36;8.90;;;2.90;;
10416;SDS011;62605;49.432;8.680;2023-07-02T04:38:06;6.47;;;3.00;;
10416;SDS011;62605;49.432;8.680;2023-07-02T04:40:38;7.82;;;3.15;;
10416;SDS011;62605;49.432;8.680;2023-07-02T04:43:17;5.85;;;3.28;;
10416;SDS011;62605;49.432;8.680;2023-07-02T04:45:48;4.63;;;2.83;;
10416;SDS011;62605;49.432;8.680;2023-07-02T04:48:17;5.70;;;3.33;;
10416;SDS011;62605;49.432;8.680;2023-07-02T04:50:45;5.63;;;2.83;;
10416;SDS011;62605;49.432;8.680;2023-07-02T04:53:12;6.70;;;3.08;;
10416;SDS011;62605;49.432;8.680;2023-07-02T04:55:45;4.50;;;2.88;;
10416;SDS011;62605;49.432;8.680;2023-07-02T04:58:15;6.07;;;2.53;;
10416;SDS011;62605;49.432;8.680;2023-07-02T05:00:43;8.43;;;3.13;;
10416;SDS011;62605;49.432;8.680;2023-07-02T05:03:14;6.80;;;2.45;;
10416;SDS011;62605;49.432;8.680;2023-07-02T05:05:42;5.95;;;2.67;;
10416;SDS011;62605;49.432;8.680;2023-07-02T05:08:12;6.15;;;3.40;;
10416;SDS011;62605;49.432;8.680;2023-07-02T05:10:40;6.18;;;3.13;;
10416;SDS011;62605;49.432;8.680;2023-07-02T05:13:10;5.85;;;3.22;;
10416;SDS011;62605;49.432;8.680;2023-07-02T05:15:41;5.07;;;3.00;;
10416;SDS011;62605;49.432;8.680;2023-07-02T05:18:08;3.65;;;3.08;;
10416;SDS011;62605;49.432;8.680;2023-07-02T05:20:39;5.90;;;2.90;;
10416;SDS011;62605;49.432;8.680;2023-07-02T05:23:10;5.90;;;2.95;;
10416;SDS011;62605;49.432;8.680;2023-07-02T05:25:41;5.85;;;3.13;;
10416;SDS011;62605;49.432;8.680;2023-07-02T05:28:08;4.97;;;2.78;;
10416;SDS011;62605;49.432;8.680;2023-07-02T05:30:36;7.30;;;2.95;;
10416;SDS011;62605;49.432;8.680;2023-07-02T05:33:04;3.55;;;2.50;;
10416;SDS011;62605;49.432;8.680;2023-07-02T05:35:36;5.18;;;3.28;;
10416;SDS011;62605;49.432;8.680;2023-07-02T05:38:06;4.72;;;2.90;;
10416;SDS011;62605;49.432;8.680;2023-07-02T05:40:44;5.80;;;3.28;;
10416;SDS011;62605;49.432;8.680;2023-07-02T05:43:11;5.38;;;2.65;;
10416;SDS011;62605;49.432;8.680;2023-07-02T05:45:40;4.88;;;3.17;;
10416;SDS011;62605;49.432;8.680;2023-07-02T05:48:07;4.15;;;2.65;;
10416;SDS011;62605;49.432;8.680;2023-07-02T05:50:34;4.97;;;3.05;;
10416;SDS011;62605;49.432;8.680;2023-07-02T05:53:03;5.53;;;2.75;;
10416;SDS011;62605;49.432;8.680;2023-07-02T05:55:30;6.15;;;3.17;;
10416;SDS011;62605;49.432;8.680;2023-07-02T05:58:06;4.43;;;3.00;;
10416;SDS011;62605;49.432;8.680;2023-07-02T06:00:33;13.15;;;3.67;;
10416;SDS011;62605;49.432;8.680;2023-07-02T06:03:07;6.55;;;3.15;;
10416;SDS011;62605;49.432;8.680;2023-07-02T06:05:34;4.13;;;2.85;;
10416;SDS011;62605;49.432;8.680;2023-07-02T06:08:03;5.18;;;3.13;;
10416;SDS011;62605;49.432;8.680;2023-07-02T06:10:30;9.20;;;3.35;;
10416;SDS011;62605;49.432;8.680;2023-07-02T06:12:58;5.85;;;3.47;;
10416;SDS011;62605;49.432;8.680;2023-07-02T06:15:27;5.10;;;3.53;;
10416;SDS011;62605;49.432;8.680;2023-07-02T06:17:58;6.13;;;3.45;;
10416;SDS011;62605;49.432;8.680;2023-07-02T06:20:28;6.55;;;3.50;;
10416;SDS011;62605;49.432;8.680;2023-07-02T06:23:14;7.65;;;3.85;;
10416;SDS011;62605;49.432;8.680;2023-07-02T06:25:45;7.88;;;3.95;;
10416;SDS011;62605;49.432;8.680;2023-07-02T06:28:13;8.02;;;4.00;;
10416;SDS011;62605;49.432;8.680;2023-07-02T06:33:28;13.68;;;6.53;;
10416;SDS011;62605;49.432;8.680;2023-07-02T06:35:55;7.05;;;3.78;;
10416;SDS011;62605;49.432;8.680;2023-07-02T06:38:22;10.75;;;4.20;;
10416;SDS011;62605;49.432;8.680;2023-07-02T06:41:00;10.90;;;4.85;;
10416;SDS011;62605;49.432;8.680;2023-07-02T06:43:45;8.95;;;4.97;;
10416;SDS011;62605;49.432;8.680;2023-07-02T06:46:15;11.40;;;4.50;;
10416;SDS011;62605;49.432;8.680;2023-07-02T06:48:43;10.02;;;4.95;;
10416;SDS011;62605;49.432;8.680;2023-07-02T06:51:11;7.40;;;4.25;;
10416;SDS011;62605;49.432;8.680;2023-07-02T06:53:41;8.38;;;4.38;;
10416;SDS011;62605;49.432;8.680;2023-07-02T06:56:14;12.25;;;5.00;;
10416;SDS011;62605;49.432;8.680;2023-07-02T06:58:41;8.95;;;4.60;;
10416;SDS011;62605;49.432;8.680;2023-07-02T07:01:15;9.30;;;4.72;;
10416;SDS011;62605;49.432;8.680;2023-07-02T07:03:43;9.75;;;4.57;;
10416;SDS011;62605;49.432;8.680;2023-07-02T07:06:12;9.38;;;4.80;;
10416;SDS011;62605;49.432;8.680;2023-07-02T07:08:40;9.60;;;4.47;;
10416;SDS011;62605;49.432;8.680;2023-07-02T07:11:09;9.57;;;4.55;;
10416;SDS011;62605;49.432;8.680;2023-07-02T07:13:40;9.70;;;4.43;;
10416;SDS011;62605;49.432;8.680;2023-07-02T07:16:23;9.98;;;4.85;;
10416;SDS011;62605;49.432;8.680;2023-07-02T07:18:57;10.93;;;4.90;;
10416;SDS011;62605;49.432;8.680;2023-07-02T07:21:24;7.68;;;4.68;;
10416;SDS011;62605;49.432;8.680;2023-07-02T07:23:52;8.95;;;4.82;;
10416;SDS011;62605;49.432;8.680;2023-07-02T07:26:25;10.02;;;5.18;;
10416;SDS011;62605;49.432;8.680;2023-07-02T07:28:55;9.77;;;5.10;;
10416;SDS011;62605;49.432;8.680;2023-07-02T07:31:29;7.97;;;5.22;;
10416;SDS011;62605;49.432;8.680;2023-07-02T07:33:56;8.93;;;5.35;;
10416;SDS011;62605;49.432;8.680;2023-07-02T07:36:26;10.10;;;5.70;;
10416;SDS011;62605;49.432;8.680;2023-07-02T07:38:59;13.15;;;5.32;;
10416;SDS011;62605;49.432;8.680;2023-07-02T07:41:27;9.63;;;5.13;;
10416;SDS011;62605;49.432;8.680;2023-07-02T07:43:55;10.63;;;5.45;;
10416;SDS011;62605;49.432;8.680;2023-07-02T07:46:26;12.00;;;6.40;;
10416;SDS011;62605;49.432;8.680;2023-07-02T07:48:58;10.63;;;5.90;;
10416;SDS011;62605;49.432;8.680;2023-07-02T07:51:30;14.77;;;6.40;;
10416;SDS011;62605;49.432;8.680;2023-07-02T07:53:57;13.02;;;6.45;;
10416;SDS011;62605;49.432;8.680;2023-07-02T07:56:28;11.43;;;6.30;;
10416;SDS011;62605;49.432;8.680;2023-07-02T07:59:02;12.18;;;5.95;;
10416;SDS011;62605;49.432;8.680;2023-07-02T08:01:33;14.30;;;5.80;;
10416;SDS011;62605;49.432;8.680;2023-07-02T08:04:01;12.80;;;6.60;;
10416;SDS011;62605;49.432;8.680;2023-07-02T08:06:29;13.40;;;6.57;;
10416;SDS011;62605;49.432;8.680;2023-07-02T08:09:00;13.00;;;6.30;;
10416;SDS011;62605;49.432;8.680;2023-07-02T08:11:28;14.25;;;6.85;;
10416;SDS011;62605;49.432;8.680;2023-07-02T08:20:16;15.35;;;6.85;;
10416;SDS011;62605;49.432;8.680;2023-07-02T08:22:43;14.43;;;5.90;;
10416;SDS011;62605;49.432;8.680;2023-07-02T08:25:28;13.93;;;7.47;;
10416;SDS011;62605;49.432;8.680;2023-07-02T08:28:14;15.45;;;6.72;;
10416;SDS011;62605;49.432;8.680;2023-07-02T08:30:41;16.25;;;7.38;;
10416;SDS011;62605;49.432;8.680;2023-07-02T08:33:26;15.48;;;7.65;;
10416;SDS011;62605;49.432;8.680;2023-07-02T08:35:54;12.45;;;7.15;;
10416;SDS011;62605;49.432;8.680;2023-07-02T08:44:45;15.80;;;7.38;;
10416;SDS011;62605;49.432;8.680;2023-07-02T08:47:13;13.85;;;8.07;;
10416;SDS011;62605;49.432;8.680;2023-07-02T08:49:45;14.85;;;7.05;;
10416;SDS011;62605;49.432;8.680;2023-07-02T08:52:15;15.70;;;7.53;;
10416;SDS011;62605;49.432;8.680;2023-07-02T08:57:32;15.00;;;7.03;;
10416;SDS011;62605;49.432;8.680;2023-07-02T09:06:12;14.32;;;7.68;;
10416;SDS011;62605;49.432;8.680;2023-07-02T09:14:33;13.07;;;6.88;;
10416;SDS011;62605;49.432;8.680;2023-07-02T09:17:01;13.82;;;7.03;;
10416;SDS011;62605;49.432;8.680;2023-07-02T09:19:29;15.23;;;7.28;;
10416;SDS011;62605;49.432;8.680;2023-07-02T09:21:57;11.77;;;6.40;;
10416;SDS011;62605;49.432;8.680;2023-07-02T09:24:39;11.65;;;6.47;;
10416;SDS011;62605;49.432;8.680;2023-07-02T09:27:07;17.30;;;7.68;;
10416;SDS011;62605;49.432;8.680;2023-07-02T09:33:05;13.27;;;6.40;;
10416;SDS011;62605;49.432;8.680;2023-07-02T09:35:34;12.85;;;7.03;;
10416;SDS011;62605;49.432;8.680;2023-07-02T09:43:49;10.85;;;6.15;;
10416;SDS011;62605;49.432;8.680;2023-07-02T09:46:26;12.75;;;6.82;;
10416;SDS011;62605;49.432;8.680;2023-07-02T09:48:56;9.77;;;6.25;;
10416;SDS011;62605;49.432;8.680;2023-07-02T09:54:33;12.50;;;7.30;;
10416;SDS011;62605;49.432;8.680;2023-07-02T10:00:19;14.75;;;7.15;;
10416;SDS011;62605;49.432;8.680;2023-07-02T10:03:04;15.10;;;6.97;;
10416;SDS011;62605;49.432;8.680;2023-07-02T10:05:43;12.48;;;7.22;;
10416;SDS011;62605;49.432;8.680;2023-07-02T10:08:11;13.63;;;7.00;;
10416;SDS011;62605;49.432;8.680;2023-07-02T10:10:54;12.15;;;6.78;;
10416;SDS011;62605;49.432;8.680;2023-07-02T10:13:33;16.00;;;7.30;;
10416;SDS011;62605;49.432;8.680;2023-07-02T10:22:20;15.50;;;7.18;;
10416;SDS011;62605;49.432;8.680;2023-07-02T10:24:51;11.48;;;6.85;;
10416;SDS011;62605;49.432;8.680;2023-07-02T10:27:35;14.68;;;8.05;;
10416;SDS011;62605;49.432;8.680;2023-07-02T10:30:31;13.45;;;7.40;;
10416;SDS011;62605;49.432;8.680;2023-07-02T10:39:01;18.33;;;7.70;;
10416;SDS011;62605;49.432;8.680;2023-07-02T10:51:15;15.77;;;8.32;;
10416;SDS011;62605;49.432;8.680;2023-07-02T10:54:08;14.98;;;7.78;;
10416;SDS011;62605;49.432;8.680;2023-07-02T10:59:26;14.80;;;8.20;;
10416;SDS011;62605;49.432;8.680;2023-07-02T11:01:53;14.80;;;7.65;;
10416;SDS011;62605;49.432;8.680;2023-07-02T11:04:20;15.82;;;8.10;;
10416;SDS011;62605;49.432;8.680;2023-07-02T11:07:02;11.85;;;7.80;;
10416;SDS011;62605;49.432;8.680;2023-07-02T11:09:29;16.00;;;9.10;;
10416;SDS011;62605;49.432;8.680;2023-07-02T11:14:55;14.25;;;7.50;;
10416;SDS011;62605;49.432;8.680;2023-07-02T11:17:46;16.23;;;8.10;;
10416;SDS011;62605;49.432;8.680;2023-07-02T11:23:18;16.50;;;7.95;;
10416;SDS011;62605;49.432;8.680;2023-07-02T11:25:56;14.63;;;7.88;;
10416;SDS011;62605;49.432;8.680;2023-07-02T11:28:58;18.27;;;8.73;;
10416;SDS011;62605;49.432;8.680;2023-07-02T11:31:34;16.02;;;9.05;;
10416;SDS011;62605;49.432;8.680;2023-07-02T11:34:16;16.55;;;7.78;;
10416;SDS011;62605;49.432;8.680;2023-07-02T11:37:21;15.25;;;8.23;;
10416;SDS011;62605;49.432;8.680;2023-07-02T11:40:28;12.32;;;7.95;;
10416;SDS011;62605;49.432;8.680;2023-07-02T11:46:00;12.45;;;7.25;;
10416;SDS011;62605;49.432;8.680;2023-07-02T11:48:39;14.45;;;7.63;;
10416;SDS011;62605;49.432;8.680;2023-07-02T11:51:24;13.85;;;7.55;;
10416;SDS011;62605;49.432;8.680;2023-07-02T11:53:51;16.13;;;7.60;;
10416;SDS011;62605;49.432;8.680;2023-07-02T11:56:19;17.85;;;8.27;;
10416;SDS011;62605;49.432;8.680;2023-07-02T11:58:46;13.35;;;8.20;;
10416;SDS011;62605;49.432;8.680;2023-07-02T12:01:25;12.73;;;6.90;;
10416;SDS011;62605;49.432;8.680;2023-07-02T12:04:04;17.08;;;8.50;;
10416;SDS011;62605;49.432;8.680;2023-07-02T12:06:51;14.45;;;8.07;;
10416;SDS011;62605;49.432;8.680;2023-07-02T12:09:21;16.50;;;7.47;;
10416;SDS011;62605;49.432;8.680;2023-07-02T12:12:06;13.52;;;7.90;;
10416;SDS011;62605;49.432;8.680;2023-07-02T12:14:39;17.42;;;8.52;;
10416;SDS011;62605;49.432;8.680;2023-07-02T12:17:11;15.02;;;8.43;;
10416;SDS011;62605;49.432;8.680;2023-07-02T12:22:33;17.45;;;7.85;;
10416;SDS011;62605;49.432;8.680;2023-07-02T12:25:00;15.85;;;8.20;;
10416;SDS011;62605;49.432;8.680;2023-07-02T12:33:23;17.30;;;8.55;;
10416;SDS011;62605;49.432;8.680;2023-07-02T12:36:08;20.27;;;9.13;;
10416;SDS011;62605;49.432;8.680;2023-07-02T12:41:51;16.17;;;8.15;;
10416;SDS011;62605;49.432;8.680;2023-07-02T12:44:22;15.40;;;8.15;;
10416;SDS011;62605;49.432;8.680;2023-07-02T12:46:50;19.92;;;8.68;;
10416;SDS011;62605;49.432;8.680;2023-07-02T12:49:16;12.38;;;7.38;;
10416;SDS011;62605;49.432;8.680;2023-07-02T12:51:43;14.70;;;8.00;;
10416;SDS011;62605;49.432;8.680;2023-07-02T12:54:24;13.70;;;8.27;;
10416;SDS011;62605;49.432;8.680;2023-07-02T12:56:51;12.00;;;7.38;;
10416;SDS011;62605;49.432;8.680;2023-07-02T12:59:18;14.00;;;7.57;;
10416;SDS011;62605;49.432;8.680;2023-07-02T13:01:48;18.13;;;8.30;;
10416;SDS011;62605;49.432;8.680;2023-07-02T13:04:33;15.32;;;7.82;;
10416;SDS011;62605;49.432;8.680;2023-07-02T13:07:02;14.82;;;8.30;;
10416;SDS011;62605;49.432;8.680;2023-07-02T13:09:32;13.85;;;7.93;;
10416;SDS011;62605;49.432;8.680;2023-07-02T13:11:59;14.32;;;8.30;;
10416;SDS011;62605;49.432;8.680;2023-07-02T13:14:26;13.98;;;8.32;;
10416;SDS011;62605;49.432;8.680;2023-07-02T13:17:13;14.52;;;7.85;;
10416;SDS011;62605;49.432;8.680;2023-07-02T13:19:40;16.92;;;8.38;;
10416;SDS011;62605;49.432;8.680;2023-07-02T13:22:22;14.13;;;7.72;;
10416;SDS011;62605;49.432;8.680;2023-07-02T13:24:49;14.45;;;8.50;;
10416;SDS011;62605;49.432;8.680;2023-07-02T13:27:16;15.30;;;8.18;;
10416;SDS011;62605;49.432;8.680;2023-07-02T13:29:59;15.27;;;7.90;;
10416;SDS011;62605;49.432;8.680;2023-07-02T13:32:27;15.40;;;8.65;;
10416;SDS011;62605;49.432;8.680;2023-07-02T13:35:03;13.45;;;8.10;;
10416;SDS011;62605;49.432;8.680;2023-07-02T13:38:06;15.70;;;8.07;;
10416;SDS011;62605;49.432;8.680;2023-07-02T13:40:33;14.60;;;8.38;;
10416;SDS011;62605;49.432;8.680;2023-07-02T13:43:00;15.95;;;8.55;;
10416;SDS011;62605;49.432;8.680;2023-07-02T13:45:28;13.95;;;8.57;;
10416;SDS011;62605;49.432;8.680;2023-07-02T13:48:12;14.15;;;8.38;;
10416;SDS011;62605;49.432;8.680;2023-07-02T13:50:57;15.50;;;7.95;;
10416;SDS011;62605;49.432;8.680;2023-07-02T13:53:24;13.68;;;7.75;;
10416;SDS011;62605;49.432;8.680;2023-07-02T14:02:16;17.80;;;8.18;;
10416;SDS011;62605;49.432;8.680;2023-07-02T14:04:43;13.50;;;8.50;;
10416;SDS011;62605;49.432;8.680;2023-07-02T14:07:13;14.27;;;8.60;;
10416;SDS011;62605;49.432;8.680;2023-07-02T14:09:53;15.35;;;9.07;;
10416;SDS011;62605;49.432;8.680;2023-07-02T14:12:29;16.73;;;8.68;;
10416;SDS011;62605;49.432;8.680;2023-07-02T14:14:57;11.55;;;7.85;;
10416;SDS011;62605;49.432;8.680;2023-07-02T14:17:25;15.85;;;8.43;;
10416;SDS011;62605;49.432;8.680;2023-07-02T14:20:11;16.98;;;8.68;;
10416;SDS011;62605;49.432;8.680;2023-07-02T14:22:47;14.27;;;8.05;;
10416;SDS011;62605;49.432;8.680;2023-07-02T14:25:23;13.30;;;7.80;;
10416;SDS011;62605;49.432;8.680;2023-07-02T14:27:50;15.07;;;8.00;;
10416;SDS011;62605;49.432;8.680;2023-07-02T14:30:17;16.67;;;8.45;;
10416;SDS011;62605;49.432;8.680;2023-07-02T14:32:45;13.35;;;8.25;;
10416;SDS011;62605;49.432;8.680;2023-07-02T14:35:12;17.00;;;8.77;;
10416;SDS011;62605;49.432;8.680;2023-07-02T14:37:39;16.00;;;9.18;;
10416;SDS011;62605;49.432;8.680;2023-07-02T14:40:24;13.77;;;8.90;;
10416;SDS011;62605;49.432;8.680;2023-07-02T14:43:10;15.13;;;8.10;;
10416;SDS011;62605;49.432;8.680;2023-07-02T14:45:42;14.93;;;7.85;;
10416;SDS011;62605;49.432;8.680;2023-07-02T14:48:19;19.65;;;8.60;;
10416;SDS011;62605;49.432;8.680;2023-07-02T14:51:31;16.00;;;8.45;;
10416;SDS011;62605;49.432;8.680;2023-07-02T14:53:58;13.48;;;8.38;;
10416;SDS011;62605;49.432;8.680;2023-07-02T14:59:21;16.10;;;8.35;;
10416;SDS011;62605;49.432;8.680;2023-07-02T15:04:40;17.23;;;8.85;;
10416;SDS011;62605;49.432;8.680;2023-07-02T15:07:10;14.73;;;8.88;;
10416;SDS011;62605;49.432;8.680;2023-07-02T15:09:55;14.52;;;7.78;;
10416;SDS011;62605;49.432;8.680;2023-07-02T15:12:22;19.27;;;8.30;;
10416;SDS011;62605;49.432;8.680;2023-07-02T15:15:07;13.02;;;8.15;;
10416;SDS011;62605;49.432;8.680;2023-07-02T15:17:35;13.57;;;7.55;;
10416;SDS011;62605;49.432;8.680;2023-07-02T15:20:04;19.85;;;9.30;;
10416;SDS011;62605;49.432;8.680;2023-07-02T15:22:32;16.95;;;8.23;;
10416;SDS011;62605;49.432;8.680;2023-07-02T15:25:14;16.58;;;8.48;;
10416;SDS011;62605;49.432;8.680;2023-07-02T15:27:41;15.25;;;7.82;;
10416;SDS011;62605;49.432;8.680;2023-07-02T15:33:24;12.50;;;8.15;;
10416;SDS011;62605;49.432;8.680;2023-07-02T15:35:58;17.50;;;8.98;;
10416;SDS011;62605;49.432;8.680;2023-07-02T15:38:27;13.10;;;7.75;;
10416;SDS011;62605;49.432;8.680;2023-07-02T15:41:03;17.20;;;9.02;;
10416;SDS011;62605;49.432;8.680;2023-07-02T15:44:26;13.98;;;8.30;;
10416;SDS011;62605;49.432;8.680;2023-07-02T15:47:11;11.75;;;7.80;;
10416;SDS011;62605;49.432;8.680;2023-07-02T15:52:38;16.17;;;9.10;;
10416;SDS011;62605;49.432;8.680;2023-07-02T15:55:19;13.45;;;8.18;;
10416;SDS011;62605;49.432;8.680;2023-07-02T16:00:37;14.05;;;8.82;;
10416;SDS011;62605;49.432;8.680;2023-07-02T16:03:13;17.35;;;8.48;;
10416;SDS011;62605;49.432;8.680;2023-07-02T16:05:40;16.13;;;8.93;;
10416;SDS011;62605;49.432;8.680;2023-07-02T16:08:17;14.10;;;8.55;;
10416;SDS011;62605;49.432;8.680;2023-07-02T16:10:59;14.70;;;8.18;;
10416;SDS011;62605;49.432;8.680;2023-07-02T16:13:29;15.30;;;8.55;;
10416;SDS011;62605;49.432;8.680;2023-07-02T16:22:11;13.35;;;8.57;;
10416;SDS011;62605;49.432;8.680;2023-07-02T16:24:39;15.70;;;8.88;;
10416;SDS011;62605;49.432;8.680;2023-07-02T16:29:52;14.13;;;8.57;;
10416;SDS011;62605;49.432;8.680;2023-07-02T16:32:19;14.93;;;7.95;;
10416;SDS011;62605;49.432;8.680;2023-07-02T16:38:02;15.77;;;9.18;;
10416;SDS011;62605;49.432;8.680;2023-07-02T16:40:50;15.02;;;8.77;;
10416;SDS011;62605;49.432;8.680;2023-07-02T16:46:54;15.70;;;8.80;;
10416;SDS011;62605;49.432;8.680;2023-07-02T16:49:35;15.80;;;8.95;;
10416;SDS011;62605;49.432;8.680;2023-07-02T16:52:03;16.55;;;8.93;;
10416;SDS011;62605;49.432;8.680;2023-07-02T16:54:30;17.38;;;8.55;;
10416;SDS011;62605;49.432;8.680;2023-07-02T16:56:59;15.27;;;8.13;;
10416;SDS011;62605;49.432;8.680;2023-07-02T16:59:28;15.00;;;8.55;;
10416;SDS011;62605;49.432;8.680;2023-07-02T17:02:14;14.25;;;8.40;;
10416;SDS011;62605;49.432;8.680;2023-07-02T17:04:50;12.07;;;7.80;;
10416;SDS011;62605;49.432;8.680;2023-07-02T17:07:17;12.88;;;8.52;;
10416;SDS011;62605;49.432;8.680;2023-07-02T17:09:44;14.75;;;8.50;;
10416;SDS011;62605;49.432;8.680;2023-07-02T17:12:14;16.90;;;9.07;;
10416;SDS011;62605;49.432;8.680;2023-07-02T17:14:56;13.98;;;8.93;;
10416;SDS011;62605;49.432;8.680;2023-07-02T17:23:21;14.38;;;7.97;;
10416;SDS011;62605;49.432;8.680;2023-07-02T17:32:44;13.90;;;8.13;;
10416;SDS011;62605;49.432;8.680;2023-07-02T17:35:23;15.15;;;8.65;;
10416;SDS011;62605;49.432;8.680;2023-07-02T17:41:09;13.02;;;7.60;;
10416;SDS011;62605;49.432;8.680;2023-07-02T17:47:00;15.63;;;8.45;;
10416;SDS011;62605;49.432;8.680;2023-07-02T17:53:06;13.10;;;7.93;;
10416;SDS011;62605;49.432;8.680;2023-07-02T17:58:44;13.85;;;7.65;;
10416;SDS011;62605;49.432;8.680;2023-07-02T18:01:11;15.05;;;8.52;;
10416;SDS011;62605;49.432;8.680;2023-07-02T18:03:39;18.95;;;9.13;;
10416;SDS011;62605;49.432;8.680;2023-07-02T18:09:07;15.55;;;8.63;;
10416;SDS011;62605;49.432;8.680;2023-07-02T18:11:35;13.73;;;7.97;;